createdAt,value
2022-10-17T00:00:42.207Z,73.63
2022-10-17T00:07:02.290Z,73.65
2022-10-17T00:13:40.261Z,73.69
2022-10-17T00:20:27.116Z,73.53
2022-10-17T00:25:59.537Z,73.69
2022-10-17T00:32:34.412Z,73.64
2022-10-17T00:39:16.873Z,73.71
2022-10-17T00:46:00.492Z,73.94
2022-10-17T00:52:42.972Z,73.93
2022-10-17T00:59:25.608Z,73.97
2022-10-17T01:06:09.918Z,74.02
2022-10-17T01:12:45.128Z,74.14
2022-10-17T01:19:17.148Z,74.34
2022-10-17T01:25:31.097Z,74.37
2022-10-17T01:31:15.450Z,74.41
2022-10-17T01:37:40.258Z,74.41
2022-10-17T01:44:31.735Z,74.33
2022-10-17T01:51:01.742Z,74.16
2022-10-17T01:57:44.966Z,74.08
2022-10-17T02:04:27.514Z,74.33
2022-10-17T02:10:53.393Z,74.42
2022-10-17T02:17:23.306Z,74.47
2022-10-17T02:23:50.261Z,74.14
2022-10-17T02:30:01.056Z,74.04
2022-10-17T02:36:25.350Z,74.16
2022-10-17T02:43:07.941Z,74.44
2022-10-17T08:30:20.452Z,63.62
2022-10-17T08:35:44.824Z,61.95
2022-10-17T08:41:14.301Z,61.09
2022-10-17T08:46:39.965Z,60.97
2022-10-17T08:52:23.265Z,61.12
2022-10-17T08:57:45.076Z,59.95
2022-10-17T09:03:19.959Z,60.10
2022-10-17T09:08:48.903Z,60.44
2022-10-17T09:14:37.977Z,59.21
2022-10-17T09:20:22.809Z,57.87
2022-10-17T09:26:46.636Z,56.67
2022-10-17T09:32:29.185Z,56.55
2022-10-17T09:37:52.330Z,55.60
2022-10-17T09:43:15.653Z,55.50
2022-10-17T09:48:48.779Z,54.99
2022-10-17T09:54:43.379Z,54.71
2022-10-17T10:00:52.752Z,54.11
2022-10-17T10:06:40.975Z,53.76
2022-10-17T10:12:18.827Z,52.72
2022-10-17T10:18:05.133Z,52.98
2022-10-17T10:23:42.607Z,52.02
2022-10-17T10:29:43.769Z,51.79
2022-10-17T10:35:24.153Z,51.69
2022-10-17T10:41:26.030Z,51.27
2022-10-17T10:47:51.687Z,50.85
2022-10-17T10:53:48.434Z,49.80
2022-10-17T10:59:26.715Z,49.93
2022-10-17T11:05:11.663Z,48.88
2022-10-17T11:11:07.304Z,48.94
2022-10-17T11:16:42.633Z,48.14
2022-10-17T11:22:13.307Z,47.33
2022-10-17T11:27:35.621Z,47.16
2022-10-17T11:33:04.698Z,47.23
2022-10-17T11:38:43.295Z,46.23
2022-10-17T11:44:11.685Z,46.42
2022-10-17T11:49:43.812Z,46.84
2022-10-17T11:55:19.766Z,46.29
2022-10-17T12:01:02.836Z,46.23
2022-10-17T12:06:43.067Z,45.93
2022-10-17T12:12:05.086Z,46.00
2022-10-17T12:17:40.737Z,44.76
2022-10-17T12:23:33.667Z,44.21
2022-10-17T12:28:57.541Z,43.67
2022-10-17T12:34:24.877Z,43.18
2022-10-17T12:39:47.969Z,43.39
2022-10-17T12:46:14.547Z,45.31
2022-10-17T12:52:46.317Z,44.49
2022-10-17T12:58:19.353Z,43.24
2022-10-17T13:04:21.587Z,42.93
2022-10-17T13:09:45.832Z,42.75
2022-10-17T13:15:08.582Z,42.58
2022-10-17T13:20:31.942Z,42.73
2022-10-17T13:26:21.031Z,42.44
2022-10-17T13:32:06.035Z,43.05
2022-10-17T13:37:28.645Z,42.44
2022-10-17T13:42:52.636Z,41.08
2022-10-17T13:48:27.039Z,39.92
2022-10-17T13:53:49.149Z,39.89
2022-10-17T13:59:47.904Z,39.17
2022-10-17T14:05:23.708Z,39.23
2022-10-17T14:10:46.411Z,38.63
2022-10-17T14:16:10.961Z,38.82
2022-10-17T14:21:43.344Z,38.89
2022-10-17T14:27:53.044Z,38.52
2022-10-17T14:33:21.512Z,38.38
2022-10-17T14:38:52.135Z,38.66
2022-10-17T14:44:25.685Z,38.44
2022-10-17T14:49:51.910Z,38.45
2022-10-17T14:55:23.950Z,38.57
2022-10-17T15:00:45.799Z,38.48
2022-10-17T15:06:21.354Z,38.54
2022-10-17T15:11:43.337Z,38.63
2022-10-17T15:17:30.597Z,38.86
2022-10-17T15:23:04.860Z,39.34
2022-10-17T15:28:27.556Z,39.74
2022-10-17T15:34:05.358Z,40.29
2022-10-17T15:39:27.288Z,40.99
2022-10-17T15:44:51.368Z,42.22
2022-10-17T15:50:17.731Z,43.30
2022-10-17T15:55:39.707Z,44.33
2022-10-17T16:01:25.921Z,46.01
2022-10-17T16:06:58.799Z,46.60
2022-10-17T16:12:31.369Z,47.19
2022-10-17T16:18:06.606Z,48.08
2022-10-17T16:23:31.537Z,48.67
2022-10-17T16:29:55.680Z,50.48
2022-10-17T16:35:58.623Z,52.17
2022-10-17T16:42:41.330Z,52.29
2022-10-17T16:49:24.334Z,52.52
2022-10-17T16:55:15.760Z,54.01
2022-10-17T17:01:32.392Z,54.21
2022-10-17T17:07:09.603Z,54.78
2022-10-17T17:12:39.638Z,54.52
2022-10-17T17:18:05.270Z,54.62
2022-10-17T17:23:29.072Z,54.02
2022-10-17T17:28:51.580Z,54.25
2022-10-17T17:34:17.254Z,54.49
2022-10-17T17:45:42.654Z,55.03
2022-10-17T17:51:28.401Z,54.21
2022-10-17T17:57:14.175Z,53.73
2022-10-17T18:02:47.928Z,54.15
2022-10-17T18:08:35.289Z,54.79
2022-10-17T18:14:40.142Z,55.38
2022-10-17T18:20:30.641Z,56.10
2022-10-17T18:27:12.862Z,56.75
2022-10-17T18:32:59.903Z,57.37
2022-10-17T18:38:22.278Z,57.85
2022-10-17T18:43:54.690Z,58.12
2022-10-17T18:49:25.399Z,58.61
2022-10-17T18:54:54.767Z,58.98
2022-10-17T19:00:17.897Z,59.23
2022-10-17T19:05:41.026Z,59.47
2022-10-17T19:11:08.504Z,59.78
2022-10-17T19:16:34.413Z,60.02
2022-10-17T19:21:57.073Z,60.28
2022-10-17T19:27:20.748Z,60.62
2022-10-17T19:32:42.416Z,61.01
2022-10-17T19:38:04.661Z,61.27
2022-10-17T19:43:27.709Z,61.56
2022-10-17T19:48:51.081Z,61.78
2022-10-17T19:54:18.867Z,62.11
2022-10-17T19:59:41.320Z,62.24
2022-10-17T20:05:18.509Z,62.30
2022-10-17T20:10:43.911Z,62.54
2022-10-17T20:16:07.489Z,62.89
2022-10-17T20:21:35.573Z,63.35
2022-10-17T20:27:27.819Z,63.45
2022-10-17T20:32:56.721Z,63.81
2022-10-17T20:38:18.890Z,64.28
2022-10-17T20:43:57.106Z,64.43
2022-10-17T20:49:40.907Z,64.59
2022-10-17T20:55:11.657Z,64.71
2022-10-17T21:00:33.984Z,65.03
2022-10-17T21:05:57.042Z,65.20
2022-10-17T21:11:22.292Z,65.15
2022-10-17T21:16:45.138Z,65.17
2022-10-17T21:22:14.840Z,65.25
2022-10-17T21:27:42.064Z,65.38
2022-10-17T21:33:04.569Z,65.48
2022-10-17T21:38:26.845Z,65.52
2022-10-17T21:44:54.902Z,65.61
2022-10-17T21:51:38.931Z,65.70
2022-10-17T21:58:21.793Z,65.84
2022-10-17T22:05:14.608Z,65.88
2022-10-17T22:11:58.470Z,65.74
2022-10-17T22:18:41.477Z,65.81
2022-10-17T22:25:24.751Z,66.32
2022-10-17T22:32:08.019Z,66.66
2022-10-17T22:38:51.300Z,67.24
2022-10-17T22:45:34.318Z,67.60
2022-10-17T22:52:18.164Z,67.76
2022-10-17T22:59:00.911Z,67.79
2022-10-17T23:05:44.127Z,67.53
2022-10-17T23:12:27.229Z,67.48
2022-10-17T23:19:10.025Z,67.38
2022-10-17T23:25:52.905Z,67.06
2022-10-17T23:32:35.925Z,67.12
2022-10-17T23:39:18.916Z,66.94
2022-10-17T23:46:01.781Z,66.82
2022-10-17T23:52:44.596Z,66.53
2022-10-17T23:59:28.565Z,66.23
